Time;durP1;ratioP1;P1;durP2;ratioP2;P2;SDS_P1;SDS_P2;PMS_P1;PMS_P2;Temp;Humidity;BMP_temperature;BMP_pressure;BME280_temperature;BME280_humidity;BME280_pressure;Samples;Min_cycle;Max_cycle;Signal;HPM_P1;HPM_P2
2022/04/05 00:02:21;;;;;;;6.27;5.70;;;;;;;;;;4906749;29;20213;-90
2022/04/05 00:05:00;;;;;;;8.23;7.23;;;;;;;;;;4882704;29;20238;-89
2022/04/05 00:07:59;;;;;;;9.60;6.97;;;;;;;;;;4935225;29;20290;-90
2022/04/05 00:14:02;;;;;;;7.17;6.47;;;;;;;;;;4920678;29;20278;-89
2022/04/05 00:19:30;;;;;;;7.37;6.70;;;;;;;;;;4921431;29;20214;-89
2022/04/05 00:22:37;;;;;;;6.83;6.20;;;;;;;;;;4936393;28;20777;-88
2022/04/05 00:31:51;;;;;;;7.07;6.37;;;;;;;;;;4915554;29;20267;-89
2022/04/05 00:37:40;;;;;;;7.23;5.83;;;;;;;;;;5038423;28;20210;-87
2022/04/05 00:40:26;;;;;;;8.10;6.47;;;;;;;;;;5046038;28;20244;-88
2022/04/05 00:43:06;;;;;;;;;;;;;;;;;;;;;
2022/04/05 00:45:57;;;;;;;11.13;7.93;;;;;;;;;;5052904;28;20228;-89
2022/04/05 00:54:27;;;;;;;7.50;6.70;;;;;;;;;;4991994;28;20204;-88
2022/04/05 00:56:58;;;;;;;8.40;6.17;;;;;;;;;;5052699;28;20260;-89
2022/04/05 01:03:09;;;;;;;8.10;7.30;;;;;;;;;;5049859;28;20284;-88
2022/04/05 01:05:58;;;;;;;8.03;7.20;;;;;;;;;;5053027;28;20209;-90
2022/04/05 01:08:43;;;;;;;7.10;6.13;;;;;;;;;;5045632;28;20205;-90
2022/04/05 01:11:45;;;;;;;7.17;6.40;;;;;;;;;;5017890;28;20706;-88
2022/04/05 01:24:06;;;;;;;9.80;7.10;;;;;;;;;;4836153;29;20245;-87
2022/04/05 01:27:29;;;;;;;;;;;;;;;;;;;;;
2022/04/05 01:33:36;;;;;;;7.43;6.30;;;;;;;;;;4767901;30;20238;-90
2022/04/05 01:36:31;;;;;;;6.67;5.87;;;;;;;;;;4767033;30;20213;-88
2022/04/05 01:42:14;;;;;;;7.27;6.67;;;;;;;;;;4774449;29;20834;-88
2022/04/05 01:45:36;;;;;;;8.83;5.67;;;;;;;;;;4821894;29;20208;-88
2022/04/05 01:48:27;;;;;;;7.07;6.37;;;;;;;;;;4822180;29;20203;-89
2022/04/05 01:51:20;;;;;;;7.60;6.17;;;;;;;;;;4821666;29;20613;-90
2022/04/05 01:59:52;;;;;;;9.37;8.40;;;;;;;;;;4883331;29;20248;-88
2022/04/05 02:02:35;;;;;;;12.97;9.33;;;;;;;;;;4958769;29;20205;-87
2022/04/05 02:05:10;;;;;;;9.30;8.30;;;;;;;;;;4959002;29;20201;-89
2022/04/05 02:10:59;;;;;;;9.70;8.37;;;;;;;;;;4996640;28;20226;-90
2022/04/05 02:16:53;;;;;;;7.37;6.67;;;;;;;;;;5036075;28;20199;-89
2022/04/05 02:19:40;;;;;;;10.50;8.83;;;;;;;;;;5036316;28;20686;-90
2022/04/05 02:22:08;;;;;;;10.93;9.83;;;;;;;;;;5041685;28;20295;-88
2022/04/05 02:30:40;;;;;;;12.87;11.03;;;;;;;;;;4977906;28;20236;-87
2022/04/05 02:37:08;;;;;;;;;;;;;;;;;;;;;
2022/04/05 02:40:23;;;;;;;;;;;;;;;;;;;;;
2022/04/05 02:43:39;;;;;;;9.43;8.43;;;;;;;;;;4939274;29;20226;-89
2022/04/05 02:46:47;;;;;;;10.63;7.57;;;;;;;;;;4934570;29;20199;-89
2022/04/05 02:49:39;;;;;;;9.27;8.37;;;;;;;;;;4924371;29;20679;-87
2022/04/05 02:58:11;;;;;;;9.03;8.00;;;;;;;;;;4914692;29;20210;-89
2022/04/05 03:01:02;;;;;;;10.60;7.87;;;;;;;;;;4906447;29;20686;-91
2022/04/05 03:07:46;;;;;;;;;;;;;;;;;;;;;
2022/04/05 03:10:53;;;;;;;8.97;7.30;;;;;;;;;;4974181;28;20226;-89
2022/04/05 03:16:48;;;;;;;7.53;6.80;;;;;;;;;;4914847;29;20205;-90
2022/04/05 03:19:45;;;;;;;8.30;7.33;;;;;;;;;;4952887;28;20204;-89
2022/04/05 03:29:03;;;;;;;10.97;9.17;;;;;;;;;;4824813;29;20203;-89
2022/04/05 03:32:20;;;;;;;11.07;9.87;;;;;;;;;;4872108;29;20232;-88
2022/04/05 03:35:14;;;;;;;10.83;8.87;;;;;;;;;;4871243;29;20205;-90
2022/04/05 03:54:24;;;;;;;9.27;8.33;;;;;;;;;;4787446;29;20209;-89
2022/04/05 03:57:28;;;;;;;9.20;8.30;;;;;;;;;;4781936;29;20209;-89
2022/04/05 04:02:52;;;;;;;18.67;12.13;;;;;;;;;;4882741;29;20720;-91
2022/04/05 04:05:29;;;;;;;15.63;13.63;;;;;;;;;;4915942;29;20210;-89
2022/04/05 04:08:02;;;;;;;19.47;14.90;;;;;;;;;;4915948;29;20270;-88
2022/04/05 04:16:53;;;;;;;12.10;10.80;;;;;;;;;;4915941;29;20294;-88
2022/04/05 04:19:26;;;;;;;22.53;11.63;;;;;;;;;;4840588;29;20214;-87
2022/04/05 04:22:44;;;;;;;13.50;12.03;;;;;;;;;;4867543;29;20304;-87
2022/04/05 04:25:22;;;;;;;15.67;13.43;;;;;;;;;;4865550;29;20601;-88
2022/04/05 04:27:50;;;;;;;17.83;13.33;;;;;;;;;;4878281;29;20208;-89
2022/04/05 04:30:18;;;;;;;13.57;11.63;;;;;;;;;;4877856;29;20228;-88
2022/04/05 04:33:00;;;;;;;14.17;11.97;;;;;;;;;;4877684;29;20722;-88
2022/04/05 04:41:22;;;;;;;14.37;10.83;;;;;;;;;;4929993;29;20206;-89
2022/04/05 04:44:26;;;;;;;20.80;13.93;;;;;;;;;;4986593;28;20673;-87
2022/04/05 04:50:36;;;;;;;11.60;10.17;;;;;;;;;;4896209;29;20211;-88
2022/04/05 04:54:16;;;;;;;11.40;10.30;;;;;;;;;;4964759;28;20284;-88
2022/04/05 04:57:35;;;;;;;21.07;17.03;;;;;;;;;;5003357;28;20250;-87
2022/04/05 05:07:04;;;;;;;18.43;13.97;;;;;;;;;;5005663;28;20208;-87
2022/04/05 05:13:35;;;;;;;13.60;12.17;;;;;;;;;;4913406;29;20237;-86
2022/04/05 05:16:20;;;;;;;16.63;14.90;;;;;;;;;;4911964;29;20306;-88
2022/04/05 05:19:09;;;;;;;18.80;13.23;;;;;;;;;;4914781;29;20203;-87
2022/04/05 05:25:30;;;;;;;172.10;68.87;;;;;;;;;;4911644;29;20242;-88
2022/04/05 05:44:58;;;;;;;;;;;;;;;;;;;;;
2022/04/05 05:47:52;;;;;;;21.07;15.93;;;;;;;;;;4827046;29;20206;-89
2022/04/05 05:50:51;;;;;;;15.33;9.67;;;;;;;;;;4877960;29;20196;-87
2022/04/05 05:56:40;;;;;;;15.60;11.87;;;;;;;;;;4821753;29;20215;-88
2022/04/05 06:09:21;;;;;;;14.47;13.00;;;;;;;;;;4879131;29;20204;-88
2022/04/05 06:11:50;;;;;;;14.73;11.57;;;;;;;;;;4887196;29;20632;-89
2022/04/05 06:14:18;;;;;;;12.30;10.10;;;;;;;;;;4895049;29;20240;-90
2022/04/05 06:17:09;;;;;;;12.97;9.17;;;;;;;;;;4926959;28;20297;-88
2022/04/05 06:19:57;;;;;;;10.63;9.53;;;;;;;;;;5031927;28;20655;-89
2022/04/05 06:22:30;;;;;;;10.10;9.10;;;;;;;;;;5031961;28;20190;-88
2022/04/05 06:24:57;;;;;;;9.83;8.83;;;;;;;;;;5031346;28;20252;-88
2022/04/05 06:27:34;;;;;;;8.63;7.77;;;;;;;;;;5031958;28;20248;-88
2022/04/05 06:30:05;;;;;;;10.47;9.47;;;;;;;;;;5031945;28;20209;-88
2022/04/05 06:32:36;;;;;;;12.73;9.57;;;;;;;;;;5031786;28;20245;-88
2022/04/05 06:35:06;;;;;;;10.30;8.60;;;;;;;;;;5031557;28;20210;-89
2022/04/05 06:37:35;;;;;;;10.23;8.33;;;;;;;;;;5031839;28;20182;-88
2022/04/05 06:40:04;;;;;;;10.10;9.17;;;;;;;;;;5031612;28;20745;-87
2022/04/05 06:42:31;;;;;;;11.80;9.23;;;;;;;;;;5032242;28;20214;-89
2022/04/05 06:44:58;;;;;;;9.30;8.50;;;;;;;;;;5035159;28;20199;-88
2022/04/05 06:47:25;;;;;;;14.93;9.37;;;;;;;;;;5035517;28;20690;-88
2022/04/05 06:49:53;;;;;;;11.40;10.30;;;;;;;;;;5034979;28;20294;-88
2022/04/05 06:52:21;;;;;;;14.50;12.27;;;;;;;;;;5035276;28;20229;-88
2022/04/05 06:54:49;;;;;;;9.53;8.63;;;;;;;;;;5035347;28;20281;-88
2022/04/05 06:57:16;;;;;;;10.10;9.10;;;;;;;;;;5034921;28;20694;-88
2022/04/05 06:59:43;;;;;;;10.80;9.70;;;;;;;;;;5035167;28;20199;-88
2022/04/05 07:02:11;;;;;;;10.13;9.13;;;;;;;;;;5035026;28;20194;-88
2022/04/05 07:04:38;;;;;;;10.30;9.20;;;;;;;;;;5034885;28;20289;-88
2022/04/05 07:07:06;;;;;;;12.70;9.23;;;;;;;;;;5035067;28;20297;-86
2022/04/05 07:09:34;;;;;;;10.93;9.83;;;;;;;;;;5034819;28;20274;-84
2022/04/05 07:12:02;;;;;;;12.00;9.90;;;;;;;;;;5034788;28;20222;-84
2022/04/05 07:14:29;;;;;;;10.70;9.70;;;;;;;;;;5034602;28;20226;-85
2022/04/05 07:16:56;;;;;;;12.87;10.07;;;;;;;;;;5034671;28;20282;-85
2022/04/05 07:19:23;;;;;;;10.60;9.60;;;;;;;;;;5034460;28;20205;-85
2022/04/05 07:21:50;;;;;;;13.57;9.67;;;;;;;;;;5034588;28;20693;-84
2022/04/05 07:24:18;;;;;;;11.37;10.33;;;;;;;;;;5034273;28;20349;-85
2022/04/05 07:26:47;;;;;;;10.20;9.30;;;;;;;;;;5034555;28;20253;-85
2022/04/05 07:29:17;;;;;;;10.43;7.73;;;;;;;;;;5034326;28;20281;-89
2022/04/05 07:31:57;;;;;;;8.83;7.17;;;;;;;;;;5034507;28;20211;-88
2022/04/05 07:34:24;;;;;;;8.20;7.40;;;;;;;;;;5034591;28;20185;-88
2022/04/05 07:36:56;;;;;;;7.87;7.10;;;;;;;;;;5034522;28;20285;-88
2022/04/05 07:39:23;;;;;;;7.67;6.97;;;;;;;;;;5034505;28;20249;-89
2022/04/05 07:41:57;;;;;;;11.80;7.43;;;;;;;;;;5034888;28;20199;-89
2022/04/05 07:44:25;;;;;;;12.63;11.43;;;;;;;;;;5033134;28;20198;-88
2022/04/05 07:47:13;;;;;;;8.33;7.50;;;;;;;;;;5034636;28;20281;-88
2022/04/05 07:49:43;;;;;;;11.30;10.07;;;;;;;;;;5033911;28;20617;-88
2022/04/05 07:52:14;;;;;;;9.37;7.87;;;;;;;;;;5034359;28;20312;-88
2022/04/05 07:55:22;;;;;;;12.53;10.37;;;;;;;;;;5033440;28;20656;-89
2022/04/05 07:57:51;;;;;;;13.07;11.70;;;;;;;;;;4940945;28;20642;-89
2022/04/05 08:00:23;;;;;;;8.67;7.87;;;;;;;;;;5034052;28;20233;-89
2022/04/05 08:02:59;;;;;;;8.83;7.77;;;;;;;;;;5034010;28;20198;-89
2022/04/05 08:05:32;;;;;;;7.80;7.00;;;;;;;;;;5034510;28;20258;-89
2022/04/05 08:08:00;;;;;;;13.90;9.67;;;;;;;;;;5034171;28;20179;-88
2022/04/05 08:10:27;;;;;;;7.93;7.23;;;;;;;;;;5033716;28;20202;-89
2022/04/05 08:12:56;;;;;;;9.17;8.27;;;;;;;;;;5034131;28;20657;-88
2022/04/05 08:15:24;;;;;;;8.30;6.87;;;;;;;;;;5033756;28;20202;-88
2022/04/05 08:17:52;;;;;;;11.97;9.47;;;;;;;;;;5033865;28;20195;-89
2022/04/05 08:20:27;;;;;;;9.83;8.83;;;;;;;;;;5033438;28;20202;-89
2022/04/05 08:22:54;;;;;;;10.80;8.37;;;;;;;;;;5033347;28;20222;-87
2022/04/05 08:25:21;;;;;;;20.50;15.90;;;;;;;;;;5033372;28;20183;-85
2022/04/05 08:27:49;;;;;;;44.17;22.93;;;;;;;;;;5033743;28;20583;-85
2022/04/05 08:30:19;;;;;;;25.00;15.30;;;;;;;;;;5032977;28;20717;-84
2022/04/05 08:32:47;;;;;;;24.63;15.17;;;;;;;;;;5033711;28;20258;-84
2022/04/05 08:35:16;;;;;;;35.37;30.63;;;;;;;;;;5033291;28;20281;-84
2022/04/05 08:37:44;;;;;;;18.23;16.57;;;;;;;;;;5033190;28;20292;-85
2022/04/05 08:40:12;;;;;;;11.00;9.63;;;;;;;;;;5033020;28;20199;-85
2022/04/05 08:42:41;;;;;;;18.93;12.60;;;;;;;;;;5033090;28;20700;-85
2022/04/05 08:45:10;;;;;;;12.27;10.40;;;;;;;;;;5033294;28;20588;-85
2022/04/05 08:47:41;;;;;;;15.50;14.10;;;;;;;;;;5033047;28;20219;-85
2022/04/05 08:50:09;;;;;;;11.57;10.23;;;;;;;;;;5032738;28;20194;-85
2022/04/05 08:52:36;;;;;;;10.60;9.50;;;;;;;;;;5033088;28;20244;-84
2022/04/05 08:55:04;;;;;;;8.30;7.50;;;;;;;;;;5032799;28;20209;-84
2022/04/05 08:57:32;;;;;;;8.83;7.60;;;;;;;;;;5032716;28;20239;-85
2022/04/05 08:59:59;;;;;;;9.27;7.10;;;;;;;;;;5033221;28;20253;-85
2022/04/05 09:02:27;;;;;;;9.33;8.43;;;;;;;;;;5032625;28;20209;-85
2022/04/05 09:04:56;;;;;;;8.17;6.93;;;;;;;;;;5032629;28;20284;-84
2022/04/05 09:07:24;;;;;;;9.43;8.53;;;;;;;;;;5031865;28;20199;-85
2022/04/05 09:10:09;;;;;;;7.57;6.40;;;;;;;;;;5032470;28;20236;-84
2022/04/05 09:12:44;;;;;;;7.23;6.30;;;;;;;;;;5032856;28;20305;-85
2022/04/05 09:15:24;;;;;;;7.40;6.13;;;;;;;;;;5032426;28;20193;-85
2022/04/05 09:17:52;;;;;;;9.83;7.63;;;;;;;;;;5032469;28;20233;-85
2022/04/05 09:20:24;;;;;;;7.60;6.83;;;;;;;;;;5032711;28;20281;-85
2022/04/05 09:22:54;;;;;;;6.87;6.27;;;;;;;;;;5032370;28;20197;-85
2022/04/05 09:25:23;;;;;;;8.73;7.57;;;;;;;;;;5032296;28;20572;-84
2022/04/05 09:27:52;;;;;;;12.70;10.50;;;;;;;;;;5032311;28;20686;-85
2022/04/05 09:30:21;;;;;;;16.77;12.20;;;;;;;;;;5032508;28;20262;-84
2022/04/05 09:32:48;;;;;;;21.10;15.93;;;;;;;;;;5032291;28;20498;-84
2022/04/05 09:35:18;;;;;;;12.53;9.50;;;;;;;;;;5032114;28;20206;-85
2022/04/05 09:37:47;;;;;;;16.27;9.70;;;;;;;;;;5032337;28;20198;-85
2022/04/05 09:40:23;;;;;;;8.40;7.60;;;;;;;;;;5032037;28;20293;-85
2022/04/05 09:43:02;;;;;;;8.43;7.60;;;;;;;;;;5032227;28;20687;-85
2022/04/05 09:45:46;;;;;;;9.83;8.93;;;;;;;;;;5031896;28;20202;-85
2022/04/05 09:48:14;;;;;;;8.87;7.97;;;;;;;;;;5032198;28;20198;-85
2022/04/05 09:51:04;;;;;;;7.47;6.77;;;;;;;;;;5032021;28;20195;-85
2022/04/05 09:53:46;;;;;;;7.83;7.03;;;;;;;;;;5032016;28;20302;-85
2022/04/05 09:56:16;;;;;;;7.50;6.80;;;;;;;;;;5031958;28;20225;-85
2022/04/05 09:58:49;;;;;;;14.40;8.33;;;;;;;;;;5031883;28;20194;-85
2022/04/05 10:01:18;;;;;;;9.20;8.30;;;;;;;;;;5033577;28;20213;-86
2022/04/05 10:03:57;;;;;;;8.37;7.57;;;;;;;;;;5032016;28;20222;-85
2022/04/05 10:06:25;;;;;;;6.77;6.07;;;;;;;;;;5032072;28;20186;-85
2022/04/05 10:08:55;;;;;;;14.47;7.70;;;;;;;;;;5031978;28;20644;-85
2022/04/05 10:11:25;;;;;;;8.13;6.93;;;;;;;;;;5032531;28;20199;-86
2022/04/05 10:13:52;;;;;;;9.07;8.03;;;;;;;;;;5031705;28;20218;-85
2022/04/05 10:16:21;;;;;;;10.20;8.03;;;;;;;;;;5032107;28;20582;-87
2022/04/05 10:18:49;;;;;;;8.63;7.10;;;;;;;;;;5034430;28;20687;-85
2022/04/05 10:21:16;;;;;;;9.93;8.80;;;;;;;;;;5035810;28;20205;-86
2022/04/05 10:23:45;;;;;;;8.33;7.40;;;;;;;;;;5035588;28;20266;-85
2022/04/05 10:26:18;;;;;;;8.93;8.03;;;;;;;;;;5036118;28;20198;-86
2022/04/05 10:28:48;;;;;;;9.57;8.20;;;;;;;;;;5035655;28;20243;-85
2022/04/05 10:31:19;;;;;;;8.70;7.20;;;;;;;;;;5035524;28;20191;-86
2022/04/05 10:33:54;;;;;;;8.07;6.80;;;;;;;;;;5035435;28;20234;-86
2022/04/05 10:36:24;;;;;;;8.37;6.30;;;;;;;;;;5035605;28;20189;-86
2022/04/05 10:39:14;;;;;;;8.67;6.67;;;;;;;;;;5035487;28;20191;-85
2022/04/05 10:41:45;;;;;;;7.83;6.67;;;;;;;;;;5035786;28;20283;-86
2022/04/05 10:44:24;;;;;;;7.30;6.57;;;;;;;;;;5035261;28;20274;-86
2022/04/05 10:46:55;;;;;;;9.53;7.37;;;;;;;;;;5035317;28;20198;-86
2022/04/05 10:49:37;;;;;;;8.93;6.37;;;;;;;;;;5035217;28;20207;-86
2022/04/05 10:52:10;;;;;;;8.27;7.43;;;;;;;;;;5035476;28;20205;-86
2022/04/05 10:54:40;;;;;;;7.73;6.73;;;;;;;;;;5035444;28;20293;-86
2022/04/05 10:57:29;;;;;;;11.67;7.23;;;;;;;;;;5035863;28;20640;-84
2022/04/05 11:00:03;;;;;;;8.70;6.90;;;;;;;;;;5035179;28;20282;-86
2022/04/05 11:02:38;;;;;;;14.30;7.60;;;;;;;;;;5035103;28;20196;-86
2022/04/05 11:05:38;;;;;;;7.53;6.83;;;;;;;;;;5035068;28;20206;-85
2022/04/05 11:08:08;;;;;;;11.23;10.03;;;;;;;;;;5034852;28;20189;-85
2022/04/05 11:10:55;;;;;;;8.40;7.17;;;;;;;;;;5034721;28;20264;-85
2022/04/05 11:13:33;;;;;;;9.53;5.93;;;;;;;;;;5034980;28;20203;-85
2022/04/05 11:16:01;;;;;;;8.50;7.60;;;;;;;;;;5034758;28;20190;-85
2022/04/05 11:18:30;;;;;;;8.67;6.30;;;;;;;;;;5035044;28;20449;-85
2022/04/05 11:20:59;;;;;;;6.87;6.27;;;;;;;;;;5034714;28;20664;-85
2022/04/05 11:23:48;;;;;;;8.33;6.67;;;;;;;;;;5034446;28;20239;-86
2022/04/05 11:26:26;;;;;;;7.60;6.53;;;;;;;;;;5034632;28;20183;-86
2022/04/05 11:28:55;;;;;;;7.77;7.03;;;;;;;;;;5033974;28;20227;-86
2022/04/05 11:31:31;;;;;;;5.87;5.37;;;;;;;;;;5034061;28;20278;-85
2022/04/05 11:33:58;;;;;;;8.10;5.70;;;;;;;;;;5034206;28;20224;-85
2022/04/05 11:36:26;;;;;;;5.40;5.00;;;;;;;;;;5034676;28;20195;-86
2022/04/05 11:38:57;;;;;;;6.23;5.73;;;;;;;;;;5034584;28;20199;-86
2022/04/05 11:41:26;;;;;;;7.30;5.70;;;;;;;;;;5034855;28;20188;-85
2022/04/05 11:43:55;;;;;;;6.17;5.67;;;;;;;;;;5034240;28;20711;-85
2022/04/05 11:46:26;;;;;;;5.13;4.70;;;;;;;;;;5034215;28;20205;-86
2022/04/05 11:48:55;;;;;;;5.60;5.10;;;;;;;;;;5034034;28;20718;-85
2022/04/05 11:51:23;;;;;;;5.73;5.10;;;;;;;;;;5034162;28;20225;-86
2022/04/05 11:53:51;;;;;;;5.33;4.83;;;;;;;;;;5033887;28;20226;-86
2022/04/05 11:56:21;;;;;;;6.70;6.10;;;;;;;;;;5034094;28;20197;-85
2022/04/05 11:58:50;;;;;;;5.67;5.00;;;;;;;;;;5033908;28;20199;-85
2022/04/05 12:01:25;;;;;;;8.33;4.80;;;;;;;;;;5034244;28;20276;-85
2022/04/05 12:03:54;;;;;;;6.00;5.47;;;;;;;;;;5033968;28;20648;-85
2022/04/05 12:06:23;;;;;;;5.73;5.23;;;;;;;;;;5034084;28;20272;-85
2022/04/05 12:08:52;;;;;;;7.30;6.60;;;;;;;;;;5033850;28;20194;-85
2022/04/05 12:11:21;;;;;;;6.60;6.00;;;;;;;;;;5033942;28;20598;-85
2022/04/05 12:13:56;;;;;;;10.43;6.30;;;;;;;;;;5033848;28;20262;-85
2022/04/05 12:16:26;;;;;;;4.57;4.20;;;;;;;;;;5033559;28;20199;-85
2022/04/05 12:18:54;;;;;;;15.00;12.10;;;;;;;;;;5033468;28;20207;-85
2022/04/05 12:21:23;;;;;;;5.53;5.10;;;;;;;;;;5033399;28;20216;-85
2022/04/05 12:23:50;;;;;;;5.13;4.67;;;;;;;;;;5033145;28;20258;-85
2022/04/05 12:26:21;;;;;;;5.17;4.70;;;;;;;;;;5033593;28;20249;-85
2022/04/05 12:28:50;;;;;;;8.50;6.90;;;;;;;;;;5033667;28;20290;-85
2022/04/05 12:31:20;;;;;;;6.10;5.60;;;;;;;;;;5033329;28;20290;-85
2022/04/05 12:34:00;;;;;;;5.93;5.43;;;;;;;;;;5033014;28;20710;-84
2022/04/05 12:36:33;;;;;;;11.77;7.27;;;;;;;;;;5033244;28;20194;-85
2022/04/05 12:39:00;;;;;;;8.60;7.80;;;;;;;;;;5033272;28;20269;-85
2022/04/05 12:41:28;;;;;;;15.57;11.17;;;;;;;;;;5033011;28;20289;-85
2022/04/05 12:44:08;;;;;;;7.27;6.60;;;;;;;;;;5033085;28;20281;-85
2022/04/05 12:46:40;;;;;;;11.70;5.97;;;;;;;;;;5033000;28;20189;-84
2022/04/05 12:49:17;;;;;;;7.57;6.77;;;;;;;;;;5032648;28;20201;-85
2022/04/05 12:51:44;;;;;;;7.73;6.97;;;;;;;;;;5033012;28;20193;-84
2022/04/05 12:54:25;;;;;;;7.80;6.43;;;;;;;;;;5032724;28;20600;-85
2022/04/05 12:56:52;;;;;;;6.63;5.80;;;;;;;;;;5033093;28;20548;-84
2022/04/05 12:59:25;;;;;;;9.23;7.47;;;;;;;;;;5032782;28;20194;-85
2022/04/05 13:01:55;;;;;;;9.73;8.83;;;;;;;;;;5033094;28;20193;-85
2022/04/05 13:04:24;;;;;;;6.37;5.47;;;;;;;;;;5032775;28;20195;-84
2022/04/05 13:06:59;;;;;;;17.40;12.50;;;;;;;;;;5032616;28;20663;-84
2022/04/05 13:09:29;;;;;;;5.97;5.47;;;;;;;;;;5032384;28;20190;-84
2022/04/05 13:12:10;;;;;;;9.17;8.27;;;;;;;;;;5032796;28;20269;-84
2022/04/05 13:14:38;;;;;;;32.57;19.23;;;;;;;;;;5032565;28;20274;-84
2022/04/05 13:17:06;;;;;;;13.30;11.10;;;;;;;;;;5032777;28;20198;-84
2022/04/05 13:19:35;;;;;;;6.20;5.70;;;;;;;;;;5032189;28;20198;-85
2022/04/05 13:22:03;;;;;;;11.67;10.47;;;;;;;;;;5032251;28;20200;-84
2022/04/05 13:24:40;;;;;;;19.23;16.63;;;;;;;;;;5032056;28;20319;-84
2022/04/05 13:27:08;;;;;;;40.57;26.27;;;;;;;;;;5032198;28;20281;-85
2022/04/05 13:29:35;;;;;;;36.10;23.60;;;;;;;;;;5032112;28;20289;-85
2022/04/05 13:32:06;;;;;;;24.40;15.87;;;;;;;;;;5032191;28;20194;-85
2022/04/05 13:34:37;;;;;;;6.27;5.67;;;;;;;;;;5032014;28;20237;-85
2022/04/05 13:37:05;;;;;;;11.83;7.60;;;;;;;;;;5031947;28;20277;-85
2022/04/05 13:39:35;;;;;;;11.53;10.43;;;;;;;;;;5031920;28;20285;-85
2022/04/05 13:42:03;;;;;;;10.50;6.73;;;;;;;;;;5031996;28;20202;-84
2022/04/05 13:44:30;;;;;;;8.97;7.63;;;;;;;;;;5031959;28;20245;-85
2022/04/05 13:46:57;;;;;;;10.20;9.20;;;;;;;;;;5031909;28;20201;-85
2022/04/05 13:49:25;;;;;;;7.57;5.97;;;;;;;;;;5031822;28;20201;-85
2022/04/05 13:51:54;;;;;;;10.23;7.40;;;;;;;;;;5031967;28;20612;-85
2022/04/05 13:54:21;;;;;;;9.50;7.30;;;;;;;;;;5031144;28;20284;-84
2022/04/05 13:56:48;;;;;;;10.67;8.90;;;;;;;;;;5031783;28;20199;-85
2022/04/05 13:59:16;;;;;;;8.90;8.00;;;;;;;;;;5031703;28;20292;-84
2022/04/05 14:01:44;;;;;;;16.83;10.30;;;;;;;;;;5032327;28;20675;-84
2022/04/05 14:04:11;;;;;;;12.37;9.20;;;;;;;;;;5031576;28;20222;-84
2022/04/05 14:06:39;;;;;;;16.43;10.33;;;;;;;;;;5031739;28;20290;-84
2022/04/05 14:09:08;;;;;;;7.07;6.03;;;;;;;;;;5031841;28;20205;-85
2022/04/05 14:11:35;;;;;;;7.33;6.60;;;;;;;;;;5032067;28;20599;-84
2022/04/05 14:14:04;;;;;;;44.63;28.80;;;;;;;;;;5031357;28;20289;-84
2022/04/05 14:16:32;;;;;;;8.37;7.43;;;;;;;;;;5032004;28;20577;-84
2022/04/05 14:18:59;;;;;;;43.33;25.63;;;;;;;;;;5031702;28;20306;-84
2022/04/05 14:21:26;;;;;;;17.73;12.73;;;;;;;;;;5031823;28;20585;-85
2022/04/05 14:23:54;;;;;;;36.07;12.77;;;;;;;;;;5033537;28;20659;-85
2022/04/05 14:29:15;;;;;;;13.40;11.50;;;;;;;;;;5071939;28;20197;-84
2022/04/05 14:31:43;;;;;;;15.53;12.50;;;;;;;;;;5071971;28;20239;-84
2022/04/05 14:34:10;;;;;;;21.33;14.23;;;;;;;;;;5071225;28;20197;-85
2022/04/05 14:36:37;;;;;;;7.47;6.77;;;;;;;;;;5071393;28;20197;-85
2022/04/05 14:39:07;;;;;;;8.00;7.17;;;;;;;;;;5071658;28;20193;-84
2022/04/05 14:41:37;;;;;;;23.53;8.40;;;;;;;;;;5071328;28;20205;-85
2022/04/05 14:44:05;;;;;;;6.47;5.87;;;;;;;;;;5071816;28;20296;-85
2022/04/05 14:46:35;;;;;;;5.67;5.17;;;;;;;;;;5070811;28;20197;-85
2022/04/05 14:49:02;;;;;;;8.47;4.97;;;;;;;;;;5070819;28;20634;-85
2022/04/05 14:51:30;;;;;;;5.00;4.57;;;;;;;;;;5070821;28;20204;-85
2022/04/05 14:53:59;;;;;;;33.77;20.03;;;;;;;;;;5071329;28;20279;-85
2022/04/05 14:56:26;;;;;;;104.80;43.57;;;;;;;;;;5071036;28;20228;-85
2022/04/05 14:58:55;;;;;;;43.70;28.43;;;;;;;;;;5071084;28;20660;-85
2022/04/05 15:01:22;;;;;;;50.30;34.73;;;;;;;;;;5071430;28;20222;-85
2022/04/05 15:03:49;;;;;;;10.43;9.23;;;;;;;;;;5071827;28;20246;-85
2022/04/05 15:06:17;;;;;;;25.37;17.10;;;;;;;;;;5075002;28;20193;-85
2022/04/05 15:08:44;;;;;;;13.83;10.53;;;;;;;;;;5054739;28;20205;-85
2022/04/05 15:11:11;;;;;;;9.80;7.13;;;;;;;;;;5054636;28;20194;-85
2022/04/05 15:13:39;;;;;;;6.80;4.17;;;;;;;;;;5054371;28;20201;-84
2022/04/05 15:16:07;;;;;;;6.30;4.90;;;;;;;;;;5054413;28;20304;-85
2022/04/05 15:18:34;;;;;;;4.17;3.70;;;;;;;;;;5054088;28;20569;-85
2022/04/05 15:21:02;;;;;;;4.10;3.80;;;;;;;;;;5062568;28;20736;-84
2022/04/05 15:23:29;;;;;;;5.73;5.13;;;;;;;;;;5074501;28;20229;-85
2022/04/05 15:25:56;;;;;;;7.00;5.53;;;;;;;;;;5074171;28;20192;-85
2022/04/05 15:28:23;;;;;;;4.57;4.17;;;;;;;;;;5074421;28;20193;-85
2022/04/05 15:30:51;;;;;;;6.13;4.27;;;;;;;;;;5073906;28;20197;-85
2022/04/05 15:33:19;;;;;;;8.03;4.47;;;;;;;;;;5074466;28;20280;-84
2022/04/05 15:35:47;;;;;;;4.87;4.43;;;;;;;;;;5073941;28;20267;-87
2022/04/05 15:38:14;;;;;;;4.97;4.40;;;;;;;;;;5058226;28;20205;-86
2022/04/05 15:40:43;;;;;;;7.00;4.13;;;;;;;;;;5054006;28;20198;-84
2022/04/05 15:43:11;;;;;;;4.70;4.30;;;;;;;;;;5053975;28;20262;-87
2022/04/05 15:45:38;;;;;;;5.13;3.80;;;;;;;;;;5054089;28;20587;-86
2022/04/05 15:48:05;;;;;;;4.70;4.33;;;;;;;;;;5054113;28;20202;-85
2022/04/05 15:50:34;;;;;;;4.30;4.00;;;;;;;;;;5053730;28;20769;-84
2022/04/05 15:53:05;;;;;;;55.73;22.80;;;;;;;;;;5053665;28;20205;-82
2022/04/05 15:55:33;;;;;;;4.77;4.37;;;;;;;;;;5053656;28;20267;-88
2022/04/05 15:58:00;;;;;;;6.07;4.33;;;;;;;;;;5054313;28;20224;-87
2022/04/05 16:00:28;;;;;;;4.53;4.13;;;;;;;;;;5053679;28;20292;-85
2022/04/05 16:02:55;;;;;;;8.63;6.03;;;;;;;;;;5054072;28;20207;-86
2022/04/05 16:05:22;;;;;;;19.07;13.77;;;;;;;;;;5053749;28;20258;-85
2022/04/05 16:07:51;;;;;;;20.03;14.23;;;;;;;;;;5053900;28;20200;-86
2022/04/05 16:10:18;;;;;;;8.47;7.63;;;;;;;;;;5053419;28;20295;-86
2022/04/05 16:12:47;;;;;;;9.33;7.90;;;;;;;;;;5053795;28;20212;-87
2022/04/05 16:15:14;;;;;;;6.20;5.57;;;;;;;;;;5052122;28;20229;-86
2022/04/05 16:17:41;;;;;;;6.10;5.50;;;;;;;;;;5053742;28;20575;-86
2022/04/05 16:20:10;;;;;;;50.73;9.87;;;;;;;;;;5053876;28;20215;-87
2022/04/05 16:22:37;;;;;;;8.17;7.37;;;;;;;;;;5054044;28;20194;-88
2022/04/05 16:25:07;;;;;;;6.30;5.70;;;;;;;;;;5052976;28;20751;-86
2022/04/05 16:27:34;;;;;;;10.93;5.70;;;;;;;;;;5053472;28;20626;-86
2022/04/05 16:30:01;;;;;;;10.37;9.00;;;;;;;;;;5053075;28;20248;-85
2022/04/05 16:32:28;;;;;;;6.63;5.83;;;;;;;;;;5052895;28;20201;-85
2022/04/05 16:34:56;;;;;;;5.87;5.27;;;;;;;;;;5052864;28;20226;-83
2022/04/05 16:37:24;;;;;;;9.50;5.90;;;;;;;;;;5052410;28;20289;-83
2022/04/05 16:39:51;;;;;;;30.67;19.80;;;;;;;;;;5052550;28;20201;-83
2022/04/05 16:42:20;;;;;;;24.40;19.67;;;;;;;;;;5052801;28;20205;-83
2022/04/05 16:44:49;;;;;;;63.03;45.90;;;;;;;;;;5052616;28;20286;-83
2022/04/05 16:47:16;;;;;;;38.93;21.33;;;;;;;;;;5052615;28;20229;-83
2022/04/05 16:49:43;;;;;;;204.93;90.20;;;;;;;;;;5052775;28;20652;-84
2022/04/05 16:52:11;;;;;;;602.40;268.17;;;;;;;;;;5052595;28;20205;-83
2022/04/05 16:54:38;;;;;;;222.63;103.80;;;;;;;;;;5052394;28;20283;-83
2022/04/05 16:57:06;;;;;;;100.53;64.97;;;;;;;;;;5052125;28;20208;-83
2022/04/05 16:59:34;;;;;;;45.80;33.33;;;;;;;;;;5052681;28;20227;-83
2022/04/05 17:02:02;;;;;;;20.70;18.17;;;;;;;;;;5052364;28;20208;-83
2022/04/05 17:04:29;;;;;;;26.67;16.33;;;;;;;;;;5052453;28;20233;-82
2022/04/05 17:06:57;;;;;;;88.27;52.47;;;;;;;;;;5052084;28;20685;-83
2022/04/05 17:09:24;;;;;;;143.73;84.10;;;;;;;;;;5052167;28;20237;-83
2022/04/05 17:11:51;;;;;;;119.00;63.30;;;;;;;;;;5052385;28;20200;-83
2022/04/05 17:14:18;;;;;;;20.73;15.77;;;;;;;;;;5052227;28;20232;-82
2022/04/05 17:16:47;;;;;;;14.93;11.97;;;;;;;;;;5052215;28;20321;-83
2022/04/05 17:19:14;;;;;;;16.97;13.03;;;;;;;;;;5052425;28;20205;-83
2022/04/05 17:21:42;;;;;;;17.40;12.73;;;;;;;;;;5052187;28;20244;-83
2022/04/05 17:24:09;;;;;;;21.83;11.87;;;;;;;;;;5045489;28;20265;-83
2022/04/05 17:26:36;;;;;;;18.47;12.07;;;;;;;;;;5050829;28;20592;-83
2022/04/05 17:29:04;;;;;;;89.20;43.50;;;;;;;;;;5050390;28;20554;-83
2022/04/05 17:31:31;;;;;;;38.30;22.57;;;;;;;;;;5051559;28;20363;-82
2022/04/05 17:34:00;;;;;;;15.37;11.83;;;;;;;;;;5041604;28;20203;-83
2022/04/05 17:36:28;;;;;;;9.53;8.33;;;;;;;;;;5030708;28;20322;-82
2022/04/05 17:38:55;;;;;;;11.77;10.47;;;;;;;;;;5043046;28;20205;-82
2022/04/05 17:41:22;;;;;;;63.13;38.70;;;;;;;;;;5050733;28;20212;-83
2022/04/05 17:43:50;;;;;;;35.27;21.33;;;;;;;;;;5051316;28;20219;-82
2022/04/05 17:46:17;;;;;;;13.17;9.87;;;;;;;;;;5050774;28;20197;-82
2022/04/05 17:48:44;;;;;;;13.00;11.27;;;;;;;;;;5050507;28;20706;-82
2022/04/05 17:51:14;;;;;;;25.80;20.70;;;;;;;;;;5050874;28;20209;-83
2022/04/05 17:53:41;;;;;;;9.17;8.27;;;;;;;;;;5050382;28;20232;-83
2022/04/05 17:56:08;;;;;;;6.93;6.23;;;;;;;;;;5050787;28;20225;-83
2022/04/05 17:58:36;;;;;;;4.67;4.20;;;;;;;;;;5050440;28;20292;-83
2022/04/05 18:01:05;;;;;;;4.47;4.07;;;;;;;;;;5050521;28;20198;-83
2022/04/05 18:03:32;;;;;;;3.83;3.53;;;;;;;;;;5050694;28;20202;-83